IQT weather

Coronel FAP Francisco Secada Vignetta International Airport
Iquitos, Loreto Region, PerĂº

Public forecast

Using degrees Celsius for public forecast. Weather courtesy of forecast.io.

METAR (pilot weather report)

Retrieved 2019/03/22 05:00 UTC (54 minutes ago):

SPQT 220500Z VRB01KT 9999 FEW010 BKN100 25/24 Q1011 NOSIG RMK PP000

TAF (pilot weather forecast)

Forecast is more than 12 hours old.

Retrieved 2019/03/21 00:39 UTC (1 day ago):

TAF SPQT 212300Z 2200/2224 00000KT 9999 FEW020 SCT100 TX32/2219Z TN23/2211Z TEMPO 2205/2209 03010KT 4000 SHRA BKN015 FEW025TCU TEMPO 2210/2212 8000 BKN005 SCT100 BECMG 2213/2215 0306KT BKN020 SCT100 TEMPO 2219/2223 07012KT 4000 SHRA BKN015 FEW030TCU BKN080